Time;durP1;ratioP1;P1;durP2;ratioP2;P2;SDS_P1;SDS_P2;PMS_P1;PMS_P2;Temp;Humidity;BMP_temperature;BMP_pressure;BME280_temperature;BME280_humidity;BME280_pressure;Samples;Min_cycle;Max_cycle;Signal;HPM_P1;HPM_P2
2021/04/06 00:01:47;;;;;;;17.43;1.97;;;3.10;91.00;;;;;;5096088;28;20027;-72
2021/04/06 00:04:19;;;;;;;15.07;1.53;;;3.10;91.20;;;;;;5061881;28;20388;-72
2021/04/06 00:06:49;;;;;;;18.57;1.70;;;3.10;91.30;;;;;;5077847;28;20482;-73
2021/04/06 00:09:21;;;;;;;12.90;1.73;;;3.10;91.60;;;;;;5096235;28;20039;-73
2021/04/06 00:11:48;;;;;;;18.90;2.13;;;3.10;91.70;;;;;;5077279;28;20484;-74
2021/04/06 00:14:16;;;;;;;17.57;3.33;;;3.10;91.80;;;;;;5095932;28;20105;-72
2021/04/06 00:16:44;;;;;;;13.47;1.60;;;3.10;91.70;;;;;;5095718;28;20020;-72
2021/04/06 00:19:15;;;;;;;18.33;2.13;;;3.10;91.60;;;;;;5095632;28;20059;-72
2021/04/06 00:21:42;;;;;;;11.60;1.90;;;3.10;91.50;;;;;;5077762;28;20035;-72
2021/04/06 00:24:09;;;;;;;11.30;1.53;;;3.10;91.50;;;;;;5078082;28;20058;-72
2021/04/06 00:26:53;;;;;;;15.53;1.50;;;3.10;91.50;;;;;;5077434;28;20115;-73
2021/04/06 00:29:21;;;;;;;14.05;1.65;;;3.10;91.40;;;;;;5094174;28;20036;-72
2021/04/06 00:31:50;;;;;;;9.37;1.50;;;3.20;91.30;;;;;;5077269;28;20442;-72
2021/04/06 00:34:18;;;;;;;11.93;1.23;;;3.20;91.30;;;;;;5077351;28;20026;-72
2021/04/06 00:36:53;;;;;;;11.10;1.10;;;3.20;91.30;;;;;;5095331;28;20426;-72
2021/04/06 00:39:34;;;;;;;16.90;2.10;;;3.20;91.20;;;;;;5095483;28;20029;-72
2021/04/06 00:42:10;;;;;;;11.77;1.80;;;3.20;91.20;;;;;;5077535;28;20048;-72
2021/04/06 00:44:41;;;;;;;20.43;1.90;;;3.30;91.00;;;;;;5093443;28;20089;-72
2021/04/06 00:47:09;;;;;;;17.30;1.97;;;3.20;90.70;;;;;;5073992;28;20047;-72
2021/04/06 00:49:36;;;;;;;17.43;2.10;;;3.20;90.60;;;;;;5074902;28;20452;-72
2021/04/06 00:52:04;;;;;;;15.73;2.50;;;3.20;90.60;;;;;;5056929;28;20507;-72
2021/04/06 00:54:33;;;;;;;12.87;1.40;;;3.20;90.60;;;;;;5075014;28;20388;-72
2021/04/06 00:57:00;;;;;;;19.20;2.17;;;3.20;90.60;;;;;;5056733;28;20074;-71
2021/04/06 00:59:26;;;;;;;13.80;1.50;;;3.20;90.70;;;;;;5040687;28;20541;-72
2021/04/06 01:02:04;;;;;;;18.97;1.73;;;3.20;90.80;;;;;;5065316;28;20032;-73
2021/04/06 01:04:35;;;;;;;13.27;2.07;;;3.30;91.10;;;;;;5094657;28;20055;-72
2021/04/06 01:07:11;;;;;;;25.53;3.90;;;3.20;91.40;;;;;;5090801;28;20158;-72
2021/04/06 01:09:50;;;;;;;15.93;1.93;;;3.20;91.50;;;;;;5074772;28;20468;-72
2021/04/06 01:12:22;;;;;;;14.73;2.37;;;3.20;91.60;;;;;;5074498;28;20120;-72
2021/04/06 01:14:49;;;;;;;21.87;2.40;;;3.10;91.60;;;;;;5074512;28;20031;-72
2021/04/06 01:17:20;;;;;;;16.40;2.10;;;3.10;91.70;;;;;;5040472;28;20025;-72
2021/04/06 01:19:45;;;;;;;20.07;3.77;;;3.00;91.70;;;;;;5094887;28;20106;-72
2021/04/06 01:22:15;;;;;;;9.23;1.73;;;3.00;91.70;;;;;;5094688;28;20554;-72
2021/04/06 01:24:43;;;;;;;23.53;2.00;;;2.90;91.70;;;;;;5094476;28;20069;-72
2021/04/06 01:27:19;;;;;;;23.83;2.17;;;2.90;91.70;;;;;;5076190;28;20016;-72
2021/04/06 01:29:55;;;;;;;12.10;2.70;;;2.80;91.70;;;;;;5094130;28;20113;-72
2021/04/06 01:32:22;;;;;;;20.73;3.07;;;2.70;91.70;;;;;;5076230;28;20023;-73
2021/04/06 01:34:49;;;;;;;19.07;2.10;;;2.70;91.70;;;;;;5062190;28;20062;-72
2021/04/06 01:37:19;;;;;;;20.67;2.97;;;2.70;91.70;;;;;;5055842;28;20454;-72
2021/04/06 01:39:47;;;;;;;15.27;2.10;;;2.70;91.70;;;;;;5056094;28;20162;-72
2021/04/06 01:42:14;;;;;;;18.37;2.73;;;2.70;91.70;;;;;;5073992;28;20032;-72
2021/04/06 01:44:42;;;;;;;14.90;2.47;;;2.70;91.70;;;;;;5073887;28;20067;-73
2021/04/06 01:47:13;;;;;;;18.67;2.60;;;2.70;91.70;;;;;;5073781;28;20033;-72
2021/04/06 01:49:39;;;;;;;23.37;2.40;;;2.70;91.70;;;;;;5074952;28;20047;-72
2021/04/06 01:52:04;;;;;;;22.10;2.47;;;2.80;91.70;;;;;;5073991;28;20472;-72
2021/04/06 01:54:32;;;;;;;12.30;1.90;;;2.80;91.60;;;;;;5059563;28;20052;-72
2021/04/06 01:57:03;;;;;;;19.67;2.47;;;2.80;91.70;;;;;;5075408;28;20070;-72
2021/04/06 01:59:33;;;;;;;14.50;2.83;;;2.90;91.70;;;;;;5094001;28;20031;-72
2021/04/06 02:02:02;;;;;;;16.30;2.23;;;2.90;91.70;;;;;;5075689;28;20081;-71
2021/04/06 02:04:29;;;;;;;25.00;2.83;;;2.90;91.40;;;;;;5093712;28;20129;-72
2021/04/06 02:07:00;;;;;;;25.77;2.33;;;2.90;91.30;;;;;;5058807;28;20024;-72
2021/04/06 02:09:26;;;;;;;22.80;2.80;;;2.90;91.20;;;;;;5093507;28;20039;-72
2021/04/06 02:11:52;;;;;;;23.07;3.20;;;2.90;90.90;;;;;;5075566;28;20480;-72
2021/04/06 02:14:21;;;;;;;16.30;2.47;;;2.90;90.80;;;;;;5093631;28;20047;-72
2021/04/06 02:16:50;;;;;;;19.67;2.30;;;2.90;90.90;;;;;;5075640;28;20043;-72
2021/04/06 02:19:23;;;;;;;26.97;3.67;;;2.80;90.70;;;;;;5093606;28;20525;-71
2021/04/06 02:21:51;;;;;;;15.33;2.37;;;2.80;90.80;;;;;;5093282;28;20016;-72
2021/04/06 02:24:27;;;;;;;18.43;2.60;;;2.80;90.90;;;;;;5093968;28;20098;-75
2021/04/06 02:27:04;;;;;;;23.93;3.57;;;2.80;90.90;;;;;;5075479;28;20356;-75
2021/04/06 02:29:30;;;;;;;20.13;2.33;;;2.70;90.90;;;;;;5075737;28;20020;-75
2021/04/06 02:31:57;;;;;;;20.07;2.77;;;2.70;91.00;;;;;;5093587;28;20024;-76
2021/04/06 02:34:37;;;;;;;18.33;2.50;;;2.70;91.10;;;;;;5075780;28;20035;-77
2021/04/06 02:37:02;;;;;;;13.80;3.33;;;2.60;91.00;;;;;;5093686;28;20016;-76
2021/04/06 02:39:28;;;;;;;24.93;3.73;;;2.60;90.90;;;;;;5075233;28;20032;-75
2021/04/06 02:41:54;;;;;;;24.73;2.40;;;2.60;90.90;;;;;;5093541;28;20048;-75
2021/04/06 02:44:19;;;;;;;19.50;2.97;;;2.60;90.90;;;;;;5093400;28;20028;-75
2021/04/06 02:46:51;;;;;;;17.53;2.47;;;2.50;90.80;;;;;;5075497;28;20032;-75
2021/04/06 02:49:17;;;;;;;17.47;2.30;;;2.50;90.80;;;;;;5076393;28;20038;-75
2021/04/06 02:51:43;;;;;;;15.13;1.97;;;2.50;90.70;;;;;;5093359;28;20067;-77
2021/04/06 02:54:08;;;;;;;12.93;1.47;;;2.60;90.50;;;;;;5075056;28;20032;-75
2021/04/06 02:56:36;;;;;;;13.07;1.10;;;2.40;90.30;;;;;;5075542;28;20055;-77
2021/04/06 02:59:19;;;;;;;15.47;2.23;;;2.50;90.40;;;;;;5093594;28;20101;-75
2021/04/06 03:01:46;;;;;;;14.13;1.70;;;2.50;90.30;;;;;;5093622;28;20028;-75
2021/04/06 03:04:18;;;;;;;14.87;2.67;;;2.50;90.20;;;;;;5059041;28;20016;-75
2021/04/06 03:06:43;;;;;;;16.03;1.87;;;2.50;89.80;;;;;;5093715;28;20145;-75
2021/04/06 03:09:13;;;;;;;17.90;1.97;;;2.40;89.00;;;;;;5075864;28;20057;-75
2021/04/06 03:11:48;;;;;;;7.93;1.20;;;2.50;89.10;;;;;;5096917;28;20384;-75
2021/04/06 03:14:14;;;;;;;10.17;1.00;;;2.50;89.00;;;;;;5078868;28;20116;-76
2021/04/06 03:16:41;;;;;;;9.30;1.10;;;2.50;88.70;;;;;;5079443;28;20443;-77
2021/04/06 03:19:07;;;;;;;10.57;1.07;;;2.50;88.50;;;;;;5079152;28;20131;-76
2021/04/06 03:21:34;;;;;;;12.53;0.73;;;2.50;89.00;;;;;;5079309;28;20062;-78
2021/04/06 03:24:01;;;;;;;11.40;2.33;;;2.60;89.50;;;;;;5097183;28;20383;-78
2021/04/06 03:26:28;;;;;;;14.73;1.50;;;2.70;90.00;;;;;;5096912;28;20031;-76
2021/04/06 03:28:57;;;;;;;8.43;0.73;;;2.50;90.20;;;;;;5096755;28;20371;-77
2021/04/06 03:31:31;;;;;;;13.07;1.30;;;2.50;90.80;;;;;;5096970;28;20024;-76
2021/04/06 03:33:58;;;;;;;9.88;1.17;;;2.40;91.10;;;;;;5097062;28;20065;-76
2021/04/06 03:36:33;;;;;;;8.87;1.37;;;2.30;91.10;;;;;;5096865;28;20170;-75
2021/04/06 03:39:05;;;;;;;11.70;1.30;;;2.30;91.20;;;;;;5096720;28;20034;-75
2021/04/06 03:41:32;;;;;;;12.10;1.30;;;2.20;91.30;;;;;;5096792;28;20027;-75
2021/04/06 03:44:12;;;;;;;11.27;2.23;;;2.10;91.40;;;;;;5096340;28;20023;-75
2021/04/06 03:46:40;;;;;;;10.43;1.70;;;2.10;91.60;;;;;;5078489;28;20024;-75
2021/04/06 03:49:17;;;;;;;13.40;1.30;;;2.00;91.60;;;;;;5096577;28;20391;-75
2021/04/06 03:51:54;;;;;;;11.80;1.27;;;2.10;91.70;;;;;;5096561;28;20031;-76
2021/04/06 03:54:45;;;;;;;10.67;1.50;;;2.10;91.70;;;;;;5096698;28;20402;-75
2021/04/06 03:57:55;;;;;;;16.23;1.83;;;2.00;91.60;;;;;;5096211;28;20560;-75
2021/04/06 04:00:19;;;;;;;10.27;1.43;;;2.10;91.60;;;;;;5078894;28;20085;-75
2021/04/06 04:02:45;;;;;;;10.63;1.57;;;2.10;91.50;;;;;;5057170;28;20107;-75
2021/04/06 04:05:11;;;;;;;15.93;1.63;;;2.20;91.60;;;;;;5056778;28;20167;-76
2021/04/06 04:07:37;;;;;;;8.63;0.90;;;2.20;91.60;;;;;;5075447;28;20032;-75
2021/04/06 04:10:08;;;;;;;14.53;1.07;;;2.20;91.80;;;;;;5057589;28;20028;-75
2021/04/06 04:12:34;;;;;;;15.17;1.67;;;2.20;91.90;;;;;;5057363;28;20048;-76
2021/04/06 04:14:59;;;;;;;10.60;1.50;;;2.10;92.10;;;;;;5057287;28;20040;-74
2021/04/06 04:17:25;;;;;;;13.07;1.43;;;2.10;92.20;;;;;;5066797;28;20024;-75
2021/04/06 04:19:52;;;;;;;14.10;2.10;;;2.10;92.30;;;;;;5077045;28;20434;-75
2021/04/06 04:22:18;;;;;;;17.73;1.30;;;2.00;92.50;;;;;;5077539;28;20111;-75
2021/04/06 04:24:43;;;;;;;9.80;1.77;;;2.00;92.50;;;;;;5077237;28;20059;-75
2021/04/06 04:27:09;;;;;;;12.97;1.17;;;2.10;92.60;;;;;;5077356;28;20029;-76
2021/04/06 04:29:34;;;;;;;12.90;1.53;;;2.00;92.50;;;;;;5095164;28;20067;-76
2021/04/06 04:32:00;;;;;;;10.03;1.43;;;2.00;92.50;;;;;;5095501;28;20036;-71
2021/04/06 04:34:26;;;;;;;19.27;3.03;;;2.00;92.60;;;;;;5077416;28;20491;-71
2021/04/06 04:36:51;;;;;;;11.07;1.20;;;2.00;92.60;;;;;;5095318;28;20123;-72
2021/04/06 04:39:18;;;;;;;13.77;1.27;;;2.00;92.60;;;;;;5077329;28;20038;-73
2021/04/06 04:41:44;;;;;;;14.90;1.20;;;1.90;92.60;;;;;;5060980;28;20471;-73
2021/04/06 04:44:09;;;;;;;12.07;1.30;;;1.90;92.60;;;;;;5095341;28;20074;-74
2021/04/06 04:46:35;;;;;;;12.20;1.77;;;1.80;92.50;;;;;;5076899;28;20059;-74
2021/04/06 04:49:00;;;;;;;10.33;1.27;;;1.80;92.60;;;;;;5095194;28;20028;-73
2021/04/06 04:51:26;;;;;;;9.33;1.30;;;1.80;92.60;;;;;;5095256;28;20036;-73
2021/04/06 04:53:52;;;;;;;11.97;1.20;;;1.70;92.70;;;;;;5077310;28;20043;-73
2021/04/06 04:56:18;;;;;;;15.27;1.60;;;1.70;92.70;;;;;;5094987;28;20503;-74
2021/04/06 04:58:43;;;;;;;10.53;1.03;;;1.60;92.70;;;;;;5094682;28;20024;-74
2021/04/06 05:01:11;;;;;;;10.13;1.90;;;1.60;92.80;;;;;;5076838;28;20036;-74
2021/04/06 05:03:36;;;;;;;14.93;1.67;;;1.60;92.90;;;;;;5095333;28;20019;-74
2021/04/06 05:06:02;;;;;;;10.37;1.03;;;1.60;92.80;;;;;;5095409;28;20020;-74
2021/04/06 05:08:28;;;;;;;9.30;1.07;;;1.70;92.80;;;;;;5077259;28;20421;-74
2021/04/06 05:10:53;;;;;;;7.70;1.03;;;1.70;92.70;;;;;;5061542;28;20119;-72
2021/04/06 05:13:19;;;;;;;4.37;1.17;;;1.70;92.50;;;;;;5056056;28;20071;-74
2021/04/06 05:15:45;;;;;;;7.50;1.00;;;1.70;92.40;;;;;;5048807;28;20460;-71
2021/04/06 05:18:10;;;;;;;8.33;0.70;;;1.70;92.30;;;;;;5076011;28;20383;-75
2021/04/06 05:20:36;;;;;;;9.20;1.37;;;1.70;92.20;;;;;;5094605;28;20379;-75
2021/04/06 05:23:01;;;;;;;7.77;1.37;;;1.70;92.20;;;;;;5076732;28;20483;-76
2021/04/06 05:25:27;;;;;;;8.60;1.30;;;1.70;92.10;;;;;;5055144;28;20028;-76
2021/04/06 05:27:53;;;;;;;12.93;1.77;;;1.70;92.10;;;;;;5056441;28;20521;-76
2021/04/06 05:30:19;;;;;;;13.10;1.87;;;1.70;92.20;;;;;;5055953;28;20032;-76
2021/04/06 05:32:45;;;;;;;14.57;1.67;;;1.70;92.30;;;;;;5072776;28;20052;-75
2021/04/06 05:35:11;;;;;;;10.03;1.23;;;1.70;92.60;;;;;;5039784;28;20056;-76
2021/04/06 05:37:36;;;;;;;13.37;1.83;;;1.70;92.30;;;;;;5039180;28;20027;-76
2021/04/06 05:40:03;;;;;;;9.80;1.63;;;1.70;92.40;;;;;;5056092;28;20406;-76
2021/04/06 05:42:29;;;;;;;16.17;1.57;;;1.70;92.30;;;;;;5056193;28;20365;-76
2021/04/06 05:44:55;;;;;;;9.57;1.80;;;1.70;92.30;;;;;;5074386;28;20028;-76
2021/04/06 05:47:24;;;;;;;10.20;1.10;;;1.70;92.30;;;;;;5078653;28;20070;-76
2021/04/06 05:49:49;;;;;;;9.37;0.97;;;1.70;92.40;;;;;;5094171;28;20031;-73
2021/04/06 05:52:15;;;;;;;6.93;1.13;;;1.70;92.30;;;;;;5093710;28;20049;-73
2021/04/06 05:54:41;;;;;;;13.90;1.27;;;1.70;92.30;;;;;;5055651;28;20031;-76
2021/04/06 05:57:07;;;;;;;9.73;1.57;;;1.80;92.40;;;;;;5093871;28;20036;-77
2021/04/06 05:59:33;;;;;;;14.43;1.77;;;1.80;92.30;;;;;;5059326;28;20440;-76
2021/04/06 06:01:58;;;;;;;12.33;1.80;;;1.80;92.30;;;;;;5075915;28;20120;-77
2021/04/06 06:04:24;;;;;;;10.73;1.43;;;1.90;92.30;;;;;;5058997;28;20400;-76
2021/04/06 06:06:50;;;;;;;11.07;1.37;;;1.90;92.40;;;;;;5075883;28;20036;-76
2021/04/06 06:09:31;;;;;;;7.80;1.47;;;2.00;92.40;;;;;;5094195;28;20036;-76
2021/04/06 06:11:59;;;;;;;12.03;1.50;;;2.10;92.40;;;;;;5075886;28;20052;-76
2021/04/06 06:14:34;;;;;;;11.23;1.97;;;2.30;92.50;;;;;;5093291;28;20063;-76
2021/04/06 06:17:19;;;;;;;;;;;2.40;92.40;;;;;;5069970;28;20032;-77
2021/04/06 06:19:55;;;;;;;19.93;2.40;;;2.60;92.10;;;;;;5074261;28;20011;-76
2021/04/06 06:22:23;;;;;;;37.07;3.27;;;2.60;91.70;;;;;;5060277;28;20020;-78
2021/04/06 06:25:02;;;;;;;12.03;1.40;;;2.70;91.40;;;;;;5072899;28;20032;-78
2021/04/06 06:27:38;;;;;;;8.10;1.20;;;2.70;91.30;;;;;;5087662;28;20019;-76
2021/04/06 06:30:33;;;;;;;9.73;1.30;;;2.70;91.40;;;;;;5093453;28;20031;-76
2021/04/06 06:33:20;;;;;;;14.75;1.73;;;2.80;91.40;;;;;;5093346;28;20020;-76
2021/04/06 06:35:52;;;;;;;8.30;1.67;;;2.80;91.00;;;;;;5074256;28;20443;-76
2021/04/06 06:38:32;;;;;;;7.43;1.63;;;2.80;90.70;;;;;;5093036;28;20044;-76
2021/04/06 06:41:18;;;;;;;9.67;1.57;;;2.90;90.40;;;;;;5074967;28;20034;-76
2021/04/06 06:43:48;;;;;;;15.90;1.53;;;2.90;90.20;;;;;;5094739;28;20074;-76
2021/04/06 06:46:28;;;;;;;8.33;1.40;;;2.90;90.20;;;;;;5097366;28;20024;-76
2021/04/06 06:48:55;;;;;;;12.60;1.10;;;2.90;90.20;;;;;;5079355;28;20107;-76
2021/04/06 06:51:26;;;;;;;9.83;1.30;;;2.80;90.00;;;;;;5097424;28;20032;-76
2021/04/06 06:53:52;;;;;;;17.80;1.40;;;2.90;90.00;;;;;;5097474;28;20471;-76
2021/04/06 06:56:18;;;;;;;13.87;1.83;;;2.80;90.10;;;;;;5078949;28;20115;-76
2021/04/06 06:58:43;;;;;;;9.63;1.60;;;2.80;90.20;;;;;;5095632;28;20036;-75
2021/04/06 07:01:23;;;;;;;6.63;1.03;;;2.80;90.30;;;;;;5096823;28;20036;-76
2021/04/06 07:04:12;;;;;;;13.90;1.70;;;2.90;90.30;;;;;;5096659;28;20024;-76
2021/04/06 07:06:43;;;;;;;7.93;1.50;;;2.90;90.20;;;;;;5097694;28;20032;-79
2021/04/06 07:09:25;;;;;;;11.43;1.50;;;2.90;89.90;;;;;;5079329;28;20456;-76
2021/04/06 07:11:52;;;;;;;9.00;1.60;;;3.00;90.40;;;;;;5078787;28;20564;-76
2021/04/06 07:14:23;;;;;;;8.50;2.60;;;3.00;89.90;;;;;;5097382;28;20112;-73
2021/04/06 07:16:50;;;;;;;10.93;1.20;;;3.10;90.00;;;;;;5096593;28;20023;-73
2021/04/06 07:19:19;;;;;;;9.87;1.20;;;3.20;89.70;;;;;;5096616;28;20020;-73
2021/04/06 07:21:45;;;;;;;9.03;1.23;;;3.30;89.50;;;;;;5060292;28;20384;-74
2021/04/06 07:24:19;;;;;;;6.10;1.07;;;3.30;89.60;;;;;;5058894;28;20024;-73
2021/04/06 07:26:45;;;;;;;8.57;0.95;;;3.30;88.90;;;;;;5058432;28;20024;-73
2021/04/06 07:29:11;;;;;;;10.60;1.57;;;3.40;89.10;;;;;;5085832;28;20028;-73
2021/04/06 07:31:37;;;;;;;5.53;1.10;;;3.40;88.90;;;;;;5063829;28;20028;-73
2021/04/06 07:34:08;;;;;;;12.43;3.03;;;3.50;89.00;;;;;;5089973;28;20047;-74
2021/04/06 07:36:34;;;;;;;8.83;1.10;;;3.60;88.90;;;;;;5078078;28;20028;-73
2021/04/06 07:39:05;;;;;;;14.00;1.50;;;3.60;89.30;;;;;;5096606;28;20460;-74
2021/04/06 07:41:34;;;;;;;8.83;1.53;;;3.70;89.00;;;;;;5078839;28;20036;-73
2021/04/06 07:44:03;;;;;;;12.23;1.17;;;3.70;88.70;;;;;;5077359;28;20074;-76
2021/04/06 07:46:34;;;;;;;12.57;1.47;;;3.70;88.40;;;;;;5076162;28;20054;-79
2021/04/06 07:49:30;;;;;;;10.93;1.63;;;3.60;88.40;;;;;;5076240;28;20028;-78
2021/04/06 07:52:01;;;;;;;17.93;2.03;;;3.80;88.50;;;;;;5058049;28;20059;-77
2021/04/06 07:54:33;;;;;;;10.60;1.63;;;3.90;88.10;;;;;;5070216;28;20142;-77
2021/04/06 07:57:03;;;;;;;13.30;1.50;;;3.90;87.20;;;;;;5095810;28;20459;-75
2021/04/06 07:59:28;;;;;;;12.90;1.10;;;3.90;86.90;;;;;;5077902;28;20386;-76
2021/04/06 08:01:54;;;;;;;8.63;1.47;;;3.90;86.80;;;;;;5075726;28;20036;-76
2021/04/06 08:04:38;;;;;;;4.00;0.90;;;3.80;86.00;;;;;;5090297;28;20031;-78
2021/04/06 08:07:24;;;;;;;10.77;1.35;;;3.80;86.00;;;;;;5089391;28;20073;-74
2021/04/06 08:09:57;;;;;;;11.60;1.10;;;3.70;86.20;;;;;;5096139;28;20032;-76
2021/04/06 08:12:28;;;;;;;9.70;1.05;;;3.70;86.10;;;;;;5077739;28;20062;-75
2021/04/06 08:15:04;;;;;;;5.83;1.00;;;3.70;86.30;;;;;;5072459;28;20029;-76
2021/04/06 08:17:29;;;;;;;5.43;0.90;;;3.70;85.90;;;;;;5079056;28;20028;-76
2021/04/06 08:20:06;;;;;;;4.20;0.83;;;3.60;86.70;;;;;;5076781;28;20032;-73
2021/04/06 08:22:47;;;;;;;9.60;1.00;;;3.60;86.20;;;;;;5095385;28;20027;-71
2021/04/06 08:25:15;;;;;;;4.83;0.90;;;3.70;85.90;;;;;;5096129;28;20032;-73
2021/04/06 08:27:43;;;;;;;5.90;0.80;;;3.80;85.10;;;;;;5077091;28;20120;-73
2021/04/06 08:30:26;;;;;;;3.97;0.53;;;3.90;84.00;;;;;;5087886;28;20405;-73
2021/04/06 08:32:57;;;;;;;7.37;0.80;;;4.10;84.50;;;;;;5094092;28;20032;-73
2021/04/06 08:38:26;;;;;;;9.43;0.80;;;4.20;82.10;;;;;;5095393;28;20036;-74
2021/04/06 08:41:06;;;;;;;9.93;0.90;;;4.20;82.10;;;;;;5095695;28;20047;-74
2021/04/06 08:43:48;;;;;;;5.07;0.60;;;4.20;82.40;;;;;;5076699;28;20416;-74
2021/04/06 08:46:33;;;;;;;4.17;0.60;;;4.10;82.20;;;;;;5094756;28;20492;-73
2021/04/06 08:48:59;;;;;;;2.77;0.50;;;4.10;83.30;;;;;;5073786;28;20036;-73
2021/04/06 08:51:31;;;;;;;7.60;0.70;;;4.00;83.60;;;;;;5042557;28;20048;-73
2021/04/06 08:54:00;;;;;;;5.03;0.53;;;4.10;84.30;;;;;;5094966;28;20035;-72
2021/04/06 08:56:35;;;;;;;7.70;1.00;;;4.10;83.40;;;;;;5094674;28;20032;-73
2021/04/06 08:59:33;;;;;;;3.70;0.50;;;4.10;83.10;;;;;;5076406;28;20016;-77
2021/04/06 09:02:14;;;;;;;3.57;0.60;;;4.20;82.60;;;;;;5078204;28;20507;-74
2021/04/06 09:04:45;;;;;;;3.50;0.70;;;4.40;81.60;;;;;;5094970;28;20173;-77
2021/04/06 09:07:19;;;;;;;5.50;0.70;;;4.40;81.40;;;;;;5075066;28;20460;-73
2021/04/06 09:09:45;;;;;;;4.32;0.73;;;4.40;81.70;;;;;;5093799;28;20016;-73
2021/04/06 09:12:12;;;;;;;3.20;0.50;;;4.40;81.40;;;;;;5091568;28;20430;-77
2021/04/06 09:14:38;;;;;;;5.30;0.40;;;4.30;80.20;;;;;;5076544;28;20032;-77
2021/04/06 09:17:05;;;;;;;5.80;1.47;;;4.30;80.60;;;;;;5056926;28;20384;-76
2021/04/06 09:19:34;;;;;;;3.53;0.60;;;4.40;81.00;;;;;;5092193;28;20035;-76
2021/04/06 09:22:01;;;;;;;5.23;0.70;;;4.40;80.00;;;;;;5076778;28;20525;-78
2021/04/06 09:24:28;;;;;;;3.63;0.50;;;4.50;78.70;;;;;;5076075;28;20026;-77
2021/04/06 09:26:56;;;;;;;3.43;0.70;;;4.50;79.30;;;;;;5069727;28;20053;-78
2021/04/06 09:29:28;;;;;;;4.90;0.70;;;4.60;78.30;;;;;;5076214;28;20063;-77
2021/04/06 09:31:58;;;;;;;5.43;0.70;;;4.70;77.60;;;;;;5094621;28;20062;-77
2021/04/06 09:34:33;;;;;;;5.80;0.50;;;4.80;76.00;;;;;;5094617;28;20028;-78
2021/04/06 09:37:03;;;;;;;10.23;1.50;;;4.90;77.10;;;;;;5094253;28;20391;-76
2021/04/06 09:39:29;;;;;;;5.47;0.80;;;5.10;76.60;;;;;;5094714;28;20047;-78
2021/04/06 09:41:56;;;;;;;6.20;2.03;;;5.30;75.60;;;;;;5059204;28;20353;-72
2021/04/06 09:44:28;;;;;;;5.83;0.50;;;5.40;74.80;;;;;;5057931;28;20032;-75
2021/04/06 09:46:57;;;;;;;3.03;0.40;;;5.30;75.80;;;;;;5074032;28;20048;-73
2021/04/06 09:49:28;;;;;;;2.33;0.40;;;5.10;76.60;;;;;;5081392;28;20043;-78
2021/04/06 09:51:54;;;;;;;3.63;0.30;;;4.80;77.60;;;;;;5074558;28;20029;-78
2021/04/06 09:54:49;;;;;;;2.67;0.40;;;4.70;76.50;;;;;;5091351;28;20035;-78
2021/04/06 09:57:15;;;;;;;1.87;0.50;;;4.60;76.20;;;;;;5057052;28;20075;-78
2021/04/06 09:59:50;;;;;;;2.87;0.40;;;4.60;76.80;;;;;;5093682;28;20433;-76
2021/04/06 10:02:18;;;;;;;2.13;0.40;;;4.50;77.10;;;;;;5093311;28;20035;-76
2021/04/06 10:04:46;;;;;;;4.17;0.37;;;4.60;77.50;;;;;;5093558;28;20031;-76
2021/04/06 10:07:28;;;;;;;2.30;0.40;;;4.70;76.90;;;;;;5093537;28;20069;-77
2021/04/06 10:10:00;;;;;;;4.60;0.50;;;4.80;76.30;;;;;;5093474;28;20028;-77
2021/04/06 10:12:28;;;;;;;5.80;0.60;;;5.00;75.10;;;;;;5093257;28;20511;-76
2021/04/06 10:14:54;;;;;;;5.47;0.70;;;5.10;75.50;;;;;;5076493;28;20115;-76
2021/04/06 10:17:40;;;;;;;5.20;0.90;;;5.40;75.60;;;;;;5074069;28;20548;-77
2021/04/06 10:20:17;;;;;;;3.10;0.70;;;5.80;74.10;;;;;;5075032;28;20108;-77
2021/04/06 10:22:46;;;;;;;4.23;1.00;;;6.30;73.80;;;;;;5074614;28;20031;-77
2021/04/06 10:25:15;;;;;;;4.10;0.60;;;6.70;73.40;;;;;;5092483;28;20021;-75
2021/04/06 10:27:44;;;;;;;3.37;0.40;;;7.30;74.30;;;;;;5093384;28;20460;-76
2021/04/06 10:30:13;;;;;;;3.87;0.67;;;7.70;73.00;;;;;;5091420;28;20020;-77
2021/04/06 10:32:47;;;;;;;5.60;0.63;;;8.30;72.70;;;;;;5092886;28;20028;-76
2021/04/06 10:35:21;;;;;;;3.90;0.60;;;8.90;70.70;;;;;;5092669;28;20020;-76
2021/04/06 10:37:51;;;;;;;5.60;0.90;;;8.90;67.80;;;;;;5092399;28;20442;-76
2021/04/06 10:40:33;;;;;;;7.73;0.60;;;8.90;67.60;;;;;;5092927;28;20050;-77
2021/04/06 10:43:13;;;;;;;4.93;0.67;;;8.90;65.30;;;;;;5074639;28;20024;-77
2021/04/06 10:45:45;;;;;;;6.50;0.70;;;8.90;65.50;;;;;;5087749;28;20103;-77
2021/04/06 10:48:19;;;;;;;5.43;0.90;;;8.90;63.10;;;;;;5089414;28;20105;-78
2021/04/06 10:50:50;;;;;;;9.77;2.00;;;8.40;62.40;;;;;;5086393;28;20032;-77
2021/04/06 10:53:36;;;;;;;7.00;0.87;;;7.60;66.90;;;;;;5072175;28;20036;-78
2021/04/06 10:56:02;;;;;;;7.63;0.90;;;6.70;71.10;;;;;;5073237;28;20071;-78
2021/04/06 10:58:34;;;;;;;5.30;1.10;;;6.00;73.70;;;;;;5072871;28;20037;-79
2021/04/06 11:01:04;;;;;;;5.37;0.97;;;5.60;75.00;;;;;;5054850;28;20012;-77
2021/04/06 11:03:45;;;;;;;8.70;1.20;;;5.30;76.60;;;;;;5081170;28;20025;-77
2021/04/06 11:06:13;;;;;;;7.37;0.90;;;5.00;78.80;;;;;;5083710;28;20024;-78
2021/04/06 11:08:41;;;;;;;2.43;0.60;;;5.00;79.60;;;;;;5075887;28;20133;-77
2021/04/06 11:11:22;;;;;;;4.23;0.90;;;5.40;80.10;;;;;;5091806;28;20032;-76
2021/04/06 11:13:49;;;;;;;5.53;0.70;;;6.30;81.00;;;;;;5091980;28;20028;-76
2021/04/06 11:16:16;;;;;;;2.83;0.60;;;7.20;79.40;;;;;;5072053;28;20041;-77
2021/04/06 11:18:42;;;;;;;2.13;0.43;;;8.10;76.70;;;;;;5091101;28;20047;-76
2021/04/06 11:21:08;;;;;;;3.77;0.60;;;9.00;74.80;;;;;;5091437;28;20037;-76
2021/04/06 11:23:34;;;;;;;3.83;0.60;;;9.80;70.80;;;;;;5088301;28;20029;-79
2021/04/06 11:25:59;;;;;;;2.55;0.40;;;10.60;69.00;;;;;;5056200;28;20114;-77
2021/04/06 11:28:25;;;;;;;3.72;0.38;;;11.40;66.90;;;;;;5088692;28;20123;-77
2021/04/06 11:30:51;;;;;;;5.65;0.65;;;12.00;64.90;;;;;;5076087;28;20353;-76
2021/04/06 11:33:17;;;;;;;4.35;0.70;;;12.50;62.40;;;;;;5065465;28;20081;-77
2021/04/06 11:35:43;;;;;;;3.58;0.85;;;12.90;57.80;;;;;;5076970;28;20487;-77
2021/04/06 11:38:08;;;;;;;8.82;0.88;;;13.10;55.10;;;;;;5096105;28;20064;-77
2021/04/06 11:40:34;;;;;;;7.38;0.68;;;13.40;54.00;;;;;;5094928;28;20028;-77
2021/04/06 11:43:00;;;;;;;3.40;0.60;;;13.00;49.90;;;;;;5096167;28;20039;-77
2021/04/06 11:45:26;;;;;;;3.53;0.20;;;12.30;50.10;;;;;;5061674;28;20035;-76
2021/04/06 11:47:53;;;;;;;4.63;0.30;;;11.20;49.70;;;;;;5076010;28;20475;-77
2021/04/06 11:50:19;;;;;;;2.20;0.30;;;9.90;52.50;;;;;;5073829;28;20130;-77
2021/04/06 11:52:46;;;;;;;2.07;0.30;;;9.00;55.60;;;;;;5096024;28;20032;-78
2021/04/06 11:55:12;;;;;;;1.67;0.30;;;8.10;58.20;;;;;;5089212;28;20103;-77
2021/04/06 11:57:38;;;;;;;1.07;0.30;;;7.40;60.00;;;;;;5095097;28;20028;-77
2021/04/06 12:00:05;;;;;;;2.87;0.30;;;7.00;61.40;;;;;;5077774;28;20028;-79
2021/04/06 12:02:32;;;;;;;2.33;0.30;;;6.60;63.30;;;;;;5073701;28;20411;-78
2021/04/06 12:04:58;;;;;;;1.63;0.40;;;6.40;65.00;;;;;;5076283;28;20037;-76
2021/04/06 12:07:24;;;;;;;1.87;0.30;;;6.20;65.50;;;;;;5090097;28;20030;-76
2021/04/06 12:09:49;;;;;;;3.30;0.43;;;6.20;65.60;;;;;;5086788;28;20059;-77
2021/04/06 12:12:15;;;;;;;3.80;0.50;;;6.20;66.00;;;;;;5095765;28;20079;-77
2021/04/06 12:14:41;;;;;;;2.33;0.40;;;6.20;65.80;;;;;;5076498;28;20028;-75
2021/04/06 12:17:07;;;;;;;2.87;0.43;;;6.30;66.50;;;;;;5076764;28;20085;-76
2021/04/06 12:19:32;;;;;;;4.00;0.40;;;6.40;66.50;;;;;;5093891;28;20107;-76
2021/04/06 12:21:58;;;;;;;2.27;0.40;;;6.60;66.30;;;;;;5074278;28;20025;-76
2021/04/06 12:24:24;;;;;;;2.70;0.80;;;6.90;67.40;;;;;;5095601;28;20024;-77
2021/04/06 12:26:56;;;;;;;3.03;0.53;;;7.50;66.70;;;;;;5077594;28;20032;-76
2021/04/06 12:29:21;;;;;;;3.57;0.60;;;8.10;65.90;;;;;;5083982;28;20032;-76
2021/04/06 12:31:47;;;;;;;3.83;0.70;;;8.80;65.70;;;;;;5084492;28;20437;-77
2021/04/06 12:34:13;;;;;;;5.40;0.60;;;9.40;63.50;;;;;;5091646;28;20036;-77
2021/04/06 12:36:39;;;;;;;2.53;0.53;;;9.90;61.30;;;;;;5057292;28;20036;-77
2021/04/06 12:39:05;;;;;;;3.92;0.57;;;10.50;60.00;;;;;;5064911;28;20426;-79
2021/04/06 12:41:30;;;;;;;2.83;0.65;;;11.20;57.80;;;;;;5071766;28;20501;-79
2021/04/06 12:43:56;;;;;;;4.57;0.90;;;11.60;55.50;;;;;;5057808;28;20109;-77
2021/04/06 12:46:22;;;;;;;2.58;0.60;;;12.10;55.20;;;;;;5085547;28;20505;-78
2021/04/06 12:48:47;;;;;;;4.78;0.55;;;12.70;54.60;;;;;;5057037;28;20042;-78
2021/04/06 12:51:13;;;;;;;3.67;0.50;;;13.20;53.60;;;;;;5084664;28;20044;-80
2021/04/06 12:53:39;;;;;;;6.40;1.23;;;13.20;51.20;;;;;;5060630;28;20491;-79
2021/04/06 12:56:04;;;;;;;2.83;0.70;;;12.70;49.50;;;;;;5077717;28;20094;-79
2021/04/06 12:58:30;;;;;;;3.00;0.40;;;11.60;47.50;;;;;;5069960;28;20122;-79
2021/04/06 13:00:56;;;;;;;2.47;0.30;;;10.50;50.50;;;;;;5076159;28;20426;-79
2021/04/06 13:03:21;;;;;;;2.20;0.40;;;9.50;52.00;;;;;;5041859;28;20033;-80
2021/04/06 13:05:47;;;;;;;2.33;0.30;;;8.70;54.70;;;;;;5090191;28;20032;-79
2021/04/06 13:08:14;;;;;;;5.00;0.40;;;8.10;55.80;;;;;;5080486;28;20036;-78
2021/04/06 13:10:40;;;;;;;2.57;0.40;;;7.80;56.00;;;;;;5089148;28;20032;-78